Time;durP1;ratioP1;P1;durP2;ratioP2;P2;SDS_P1;SDS_P2;PMS_P1;PMS_P2;Temp;Humidity;BMP_temperature;BMP_pressure;BME280_temperature;BME280_humidity;BME280_pressure;Samples;Min_cycle;Max_cycle;Signal;HPM_P1;HPM_P2
2022/08/24 00:01:13;;;;;;;11.75;5.90;;;;;;;-144.48;100.00;62369.91;5012430;28;20033;-73
2022/08/24 00:03:39;;;;;;;18.53;5.90;;;;;;;-144.48;100.00;62369.91;5011507;28;20022;-72
2022/08/24 00:06:08;;;;;;;11.30;5.70;;;;;;;-144.48;100.00;62369.91;5012371;28;20278;-72
2022/08/24 00:08:33;;;;;;;11.02;5.07;;;;;;;-144.48;100.00;62369.91;5012606;28;20493;-70
2022/08/24 00:10:59;;;;;;;16.10;5.80;;;;;;;-144.48;100.00;62369.91;4999135;28;20030;-73
2022/08/24 00:13:25;;;;;;;15.70;5.75;;;;;;;-144.48;100.00;62369.91;5013435;28;20098;-71
2022/08/24 00:15:51;;;;;;;13.65;5.63;;;;;;;-144.48;100.00;62369.91;5012928;28;20022;-72
2022/08/24 00:18:16;;;;;;;13.48;5.78;;;;;;;-144.48;100.00;62369.91;5012060;28;20022;-73
2022/08/24 00:20:42;;;;;;;18.77;5.90;;;;;;;-144.48;100.00;62369.91;5011599;28;20096;-72
2022/08/24 00:23:08;;;;;;;13.63;5.90;;;;;;;-144.48;100.00;62369.91;5011338;28;20041;-72
2022/08/24 00:25:33;;;;;;;16.30;5.65;;;;;;;-144.48;100.00;62369.91;5011333;28;20014;-71
2022/08/24 00:27:59;;;;;;;11.88;5.72;;;;;;;-144.48;100.00;62369.91;5011515;28;20164;-73
2022/08/24 00:30:25;;;;;;;13.30;5.90;;;;;;;-144.48;100.00;62369.91;5011549;28;20406;-74
2022/08/24 00:32:50;;;;;;;11.77;5.88;;;;;;;-144.48;100.00;62369.91;5010157;28;20024;-72
2022/08/24 00:35:17;;;;;;;11.23;5.45;;;;;;;-144.48;100.00;62369.91;5011607;28;20599;-71
2022/08/24 00:37:44;;;;;;;13.20;5.88;;;;;;;-144.48;100.00;62369.91;5011057;28;20030;-69
2022/08/24 00:40:35;;;;;;;14.35;5.95;;;;;;;-144.48;100.00;62369.91;5010980;28;20020;-71
2022/08/24 00:43:03;;;;;;;11.93;5.10;;;;;;;-144.48;100.00;62369.91;5011184;28;20037;-70
2022/08/24 00:45:48;;;;;;;10.52;5.35;;;;;;;-144.48;100.00;62369.91;5011252;28;20033;-72
2022/08/24 00:48:24;;;;;;;10.65;5.53;;;;;;;-144.48;100.00;62369.91;5011204;28;20026;-71
2022/08/24 00:51:02;;;;;;;11.10;6.30;;;;;;;-144.48;100.00;62369.91;5011047;28;20018;-72
2022/08/24 00:53:37;;;;;;;;;;;;;;;-144.48;100.00;62369.91;5008821;28;20088;-71
2022/08/24 00:56:08;;;;;;;13.52;5.47;;;;;;;-144.48;100.00;62369.91;5010947;28;20263;-71
2022/08/24 00:58:38;;;;;;;12.45;5.32;;;;;;;-144.48;100.00;62369.91;5010877;28;20028;-69
2022/08/24 01:01:06;;;;;;;16.00;6.05;;;;;;;-144.48;100.00;62369.91;5010472;28;20036;-70
2022/08/24 01:03:34;;;;;;;11.80;5.57;;;;;;;-144.48;100.00;62369.91;4996605;28;20026;-73
2022/08/24 01:06:00;;;;;;;11.13;5.72;;;;;;;-144.48;100.00;62369.91;5010498;28;20030;-73
2022/08/24 01:08:26;;;;;;;12.45;5.57;;;;;;;-144.48;100.00;62369.91;5010208;28;20112;-73
2022/08/24 01:10:57;;;;;;;12.48;5.78;;;;;;;-144.48;100.00;62369.91;4996083;28;20031;-72
2022/08/24 01:13:24;;;;;;;8.63;5.15;;;;;;;-144.48;100.00;62369.91;5011130;28;20032;-72
2022/08/24 01:15:52;;;;;;;9.63;5.45;;;;;;;-144.48;100.00;62369.91;5009821;28;20357;-68
2022/08/24 01:21:17;;;;;;;13.38;5.50;;;;;;;-144.48;100.00;62369.91;5010184;28;20041;-73
2022/08/24 01:23:48;;;;;;;11.77;5.47;;;;;;;-144.48;100.00;62369.91;5003948;28;20062;-72
2022/08/24 01:26:22;;;;;;;10.82;5.72;;;;;;;-144.48;100.00;62369.91;5010184;28;20109;-70
2022/08/24 01:28:54;;;;;;;10.75;5.50;;;;;;;-144.48;100.00;62369.91;5010449;28;20022;-73
2022/08/24 01:31:21;;;;;;;15.43;6.18;;;;;;;-144.48;100.00;62369.91;5010406;28;20021;-73
2022/08/24 01:33:49;;;;;;;20.20;6.10;;;;;;;-144.48;100.00;62369.91;5010284;28;20018;-70
2022/08/24 01:36:33;;;;;;;10.90;5.47;;;;;;;-144.48;100.00;62369.91;5010080;28;20021;-73
2022/08/24 01:39:05;;;;;;;11.73;5.45;;;;;;;-144.48;100.00;62369.91;5009169;28;20049;-70
2022/08/24 01:41:30;;;;;;;12.13;6.13;;;;;;;-144.48;100.00;62369.91;5009895;28;20030;-70
2022/08/24 01:43:57;;;;;;;15.02;5.78;;;;;;;-144.48;100.00;62369.91;5008766;28;20024;-68
2022/08/24 01:46:23;;;;;;;11.77;5.72;;;;;;;-144.48;100.00;62369.91;5010104;28;20052;-72
2022/08/24 01:48:48;;;;;;;13.30;6.22;;;;;;;-144.48;100.00;62369.91;5008860;28;20022;-72
2022/08/24 01:51:13;;;;;;;14.95;6.57;;;;;;;-144.48;100.00;62369.91;5005480;28;20022;-72
2022/08/24 01:53:39;;;;;;;9.90;6.00;;;;;;;-144.48;100.00;62369.91;5009379;28;20030;-71
2022/08/24 01:56:04;;;;;;;14.77;6.03;;;;;;;-144.48;100.00;62369.91;5009776;28;20025;-72
2022/08/24 01:58:30;;;;;;;12.13;5.32;;;;;;;-144.48;100.00;62369.91;5008432;28;20017;-71
2022/08/24 02:00:55;;;;;;;13.75;5.93;;;;;;;-144.48;100.00;62369.91;5009991;28;20498;-70
2022/08/24 02:03:21;;;;;;;11.75;6.05;;;;;;;-144.48;100.00;62369.91;5010123;28;20021;-74
2022/08/24 02:05:47;;;;;;;13.13;5.43;;;;;;;-144.48;100.00;62369.91;5010112;28;20060;-71
2022/08/24 02:08:12;;;;;;;10.48;5.53;;;;;;;-144.48;100.00;62369.91;5009227;28;20033;-71
2022/08/24 02:10:38;;;;;;;14.18;5.78;;;;;;;-144.48;100.00;62369.91;4996960;28;20015;-72
2022/08/24 02:13:03;;;;;;;19.70;7.35;;;;;;;-144.48;100.00;62369.91;5009220;28;20026;-72
2022/08/24 02:15:38;;;;;;;13.27;6.55;;;;;;;-144.48;100.00;62369.91;5010020;28;20415;-71
2022/08/24 02:18:06;;;;;;;16.10;6.30;;;;;;;-144.48;100.00;62369.91;4996911;28;20064;-73
2022/08/24 02:20:33;;;;;;;13.10;6.40;;;;;;;-144.48;100.00;62369.91;5009998;28;20105;-72
2022/08/24 02:22:59;;;;;;;17.17;7.43;;;;;;;-144.48;100.00;62369.91;5009907;28;20450;-73
2022/08/24 02:25:29;;;;;;;18.17;6.63;;;;;;;-144.48;100.00;62369.91;5009381;28;20026;-73
2022/08/24 02:27:55;;;;;;;20.73;7.22;;;;;;;-144.48;100.00;62369.91;5012057;28;20022;-72
2022/08/24 02:30:20;;;;;;;16.13;7.88;;;;;;;-144.48;100.00;62369.91;5013652;28;20013;-70
2022/08/24 02:32:46;;;;;;;14.93;6.68;;;;;;;-144.48;100.00;62369.91;5013642;28;20094;-73
2022/08/24 02:35:11;;;;;;;16.42;7.53;;;;;;;-144.48;100.00;62369.91;5013849;28;20022;-69
2022/08/24 02:37:37;;;;;;;20.70;7.40;;;;;;;-144.48;100.00;62369.91;5013246;28;20017;-72
2022/08/24 02:40:04;;;;;;;21.77;8.25;;;;;;;-144.48;100.00;62369.91;5012409;28;20469;-73
2022/08/24 02:42:29;;;;;;;13.88;6.63;;;;;;;-144.48;100.00;62369.91;5013413;28;20407;-71
2022/08/24 02:44:54;;;;;;;14.32;7.10;;;;;;;-144.48;100.00;62369.91;5014065;28;20060;-72
2022/08/24 02:47:20;;;;;;;18.85;6.95;;;;;;;-144.48;100.00;62369.91;5013307;28;20025;-69
2022/08/24 02:49:46;;;;;;;13.05;6.72;;;;;;;-144.48;100.00;62369.91;5013139;28;20088;-70
2022/08/24 02:52:11;;;;;;;12.07;6.13;;;;;;;-144.48;100.00;62369.91;5013020;28;20240;-73
2022/08/24 02:54:38;;;;;;;15.23;6.97;;;;;;;-144.48;100.00;62369.91;5012988;28;20104;-72
2022/08/24 02:57:04;;;;;;;17.35;7.18;;;;;;;-144.48;100.00;62369.91;5012800;28;20049;-73
2022/08/24 02:59:29;;;;;;;13.13;7.07;;;;;;;-144.48;100.00;62369.91;5013096;28;20401;-70
2022/08/24 03:01:54;;;;;;;16.50;6.80;;;;;;;-144.48;100.00;62369.91;5013115;28;20345;-72
2022/08/24 03:04:20;;;;;;;15.68;6.82;;;;;;;-144.48;100.00;62369.91;5013412;28;20101;-71
2022/08/24 03:06:46;;;;;;;23.45;6.93;;;;;;;-144.48;100.00;62369.91;5012771;28;20096;-69
2022/08/24 03:09:12;;;;;;;19.08;7.32;;;;;;;-144.48;100.00;62369.91;5010623;28;20049;-73
2022/08/24 03:11:38;;;;;;;17.45;7.13;;;;;;;-144.48;100.00;62369.91;5000868;28;20033;-73
2022/08/24 03:14:03;;;;;;;18.50;7.78;;;;;;;-144.48;100.00;62369.91;5012740;28;20030;-71
2022/08/24 03:16:30;;;;;;;17.15;7.15;;;;;;;-144.48;100.00;62369.91;5012582;28;20033;-71
2022/08/24 03:18:56;;;;;;;17.10;7.03;;;;;;;-144.48;100.00;62369.91;5012524;28;20140;-69
2022/08/24 03:21:21;;;;;;;18.60;7.32;;;;;;;-144.48;100.00;62369.91;5012820;28;20041;-74
2022/08/24 03:23:47;;;;;;;15.00;6.63;;;;;;;-144.48;100.00;62369.91;5012170;28;20072;-72
2022/08/24 03:26:13;;;;;;;13.93;7.00;;;;;;;-144.48;100.00;62369.91;5012544;28;20079;-69
2022/08/24 03:28:39;;;;;;;16.83;6.80;;;;;;;-144.48;100.00;62369.91;5012721;28;20056;-73
2022/08/24 03:31:05;;;;;;;11.90;6.85;;;;;;;-144.48;100.00;62369.91;5012556;28;20026;-68
2022/08/24 03:33:30;;;;;;;17.10;6.78;;;;;;;-144.48;100.00;62369.91;5012305;28;20022;-71
2022/08/24 03:35:56;;;;;;;25.70;9.02;;;;;;;-144.48;100.00;62369.91;5012288;28;20049;-73
2022/08/24 03:38:21;;;;;;;13.63;6.85;;;;;;;-144.48;100.00;62369.91;5010769;28;20388;-72
2022/08/24 03:40:47;;;;;;;11.60;7.15;;;;;;;-144.48;100.00;62369.91;5011858;28;20022;-72
2022/08/24 03:43:44;;;;;;;14.07;7.25;;;;;;;-144.48;100.00;62369.91;5012455;28;20049;-72
2022/08/24 03:46:00;;;;;;;20.30;7.35;;;;;;;-144.48;100.00;62369.91;5001535;28;20092;-71
2022/08/24 03:48:27;;;;;;;18.77;7.10;;;;;;;-144.48;100.00;62369.91;5012007;28;20026;-72
2022/08/24 03:50:53;;;;;;;16.83;6.70;;;;;;;-144.48;100.00;62369.91;5011922;28;20455;-71
2022/08/24 03:53:18;;;;;;;19.77;7.63;;;;;;;-144.48;100.00;62369.91;5011697;28;20032;-72
2022/08/24 03:55:44;;;;;;;22.70;7.47;;;;;;;-144.48;100.00;62369.91;5011908;28;20040;-73
2022/08/24 03:58:09;;;;;;;11.57;6.70;;;;;;;-144.48;100.00;62369.91;5012511;28;20030;-72
2022/08/24 04:00:35;;;;;;;16.92;7.68;;;;;;;-144.48;100.00;62369.91;5011588;28;20109;-71
2022/08/24 04:03:00;;;;;;;17.60;6.28;;;;;;;-144.48;100.00;62369.91;5011682;28;20029;-73
2022/08/24 04:05:26;;;;;;;19.92;7.82;;;;;;;-144.48;100.00;62369.91;5011871;28;20026;-72
2022/08/24 04:07:51;;;;;;;11.68;7.43;;;;;;;-144.48;100.00;62369.91;5011753;28;20093;-70
2022/08/24 04:10:17;;;;;;;12.82;6.25;;;;;;;-144.48;100.00;62369.91;4999982;28;20027;-70
2022/08/24 04:12:42;;;;;;;14.57;8.27;;;;;;;-144.48;100.00;62369.91;5008337;28;20502;-71
2022/08/24 04:15:08;;;;;;;14.60;7.50;;;;;;;-144.48;100.00;62369.91;5011654;28;20021;-73
2022/08/24 04:17:34;;;;;;;17.05;7.32;;;;;;;-144.48;100.00;62369.91;5012003;28;20026;-73
2022/08/24 04:22:40;;;;;;;12.50;7.50;;;;;;;-144.48;100.00;62369.91;5008439;28;20050;-65
2022/08/24 04:25:06;;;;;;;14.73;7.82;;;;;;;-144.48;100.00;62369.91;4999694;28;20080;-67
2022/08/24 04:27:31;;;;;;;28.02;8.45;;;;;;;-144.48;100.00;62369.91;5002307;28;20476;-68
2022/08/24 04:29:57;;;;;;;15.05;7.10;;;;;;;-144.48;100.00;62369.91;5009879;28;20036;-66
2022/08/24 04:32:22;;;;;;;17.92;8.23;;;;;;;-144.48;100.00;62369.91;4995144;28;20026;-64
2022/08/24 04:34:47;;;;;;;16.35;7.97;;;;;;;-144.48;100.00;62369.91;4993617;28;20430;-67
2022/08/24 04:37:13;;;;;;;18.77;8.15;;;;;;;-144.48;100.00;62369.91;4991947;28;20061;-66
2022/08/24 04:39:40;;;;;;;17.98;7.93;;;;;;;-144.48;100.00;62369.91;4992528;28;20018;-65
2022/08/24 04:42:06;;;;;;;20.70;8.30;;;;;;;-144.48;100.00;62369.91;4991283;28;20317;-69
2022/08/24 04:44:32;;;;;;;20.48;8.45;;;;;;;-144.48;100.00;62369.91;4991874;28;20022;-68
2022/08/24 04:46:57;;;;;;;23.05;12.25;;;;;;;-144.48;100.00;62369.91;4990908;28;20053;-65
2022/08/24 04:49:22;;;;;;;27.48;13.45;;;;;;;-144.48;100.00;62369.91;4989232;28;20017;-69
2022/08/24 04:51:48;;;;;;;25.23;8.90;;;;;;;-144.48;100.00;62369.91;4990055;28;20435;-69
2022/08/24 04:54:13;;;;;;;22.20;7.72;;;;;;;-144.48;100.00;62369.91;4991507;28;20048;-67
2022/08/24 04:56:38;;;;;;;22.70;7.78;;;;;;;-144.48;100.00;62369.91;4990766;28;20049;-64
2022/08/24 04:59:05;;;;;;;15.55;7.38;;;;;;;-144.48;100.00;62369.91;4992396;28;20024;-68
2022/08/24 05:01:31;;;;;;;16.20;7.55;;;;;;;-144.48;100.00;62369.91;4990297;28;20026;-68
2022/08/24 05:03:57;;;;;;;20.67;7.80;;;;;;;-144.48;100.00;62369.91;4991284;28;20019;-68
2022/08/24 05:06:27;;;;;;;21.38;8.10;;;;;;;-144.48;100.00;62369.91;4990217;28;20662;-70
2022/08/24 05:08:52;;;;;;;17.70;7.43;;;;;;;-144.48;100.00;62369.91;4991048;28;20104;-66
2022/08/24 05:11:19;;;;;;;17.30;8.10;;;;;;;-144.48;100.00;62369.91;4977970;28;20073;-71
2022/08/24 05:13:45;;;;;;;28.35;16.70;;;;;;;-144.48;100.00;62369.91;5000650;28;20056;-68
2022/08/24 05:16:13;;;;;;;31.52;13.57;;;;;;;-144.48;100.00;62369.91;4992306;28;20464;-69
2022/08/24 05:18:39;;;;;;;;;;;;;;;-144.48;100.00;62369.91;4991297;28;20033;-69
2022/08/24 05:21:11;;;;;;;27.23;12.90;;;;;;;-144.48;100.00;62369.91;4990131;28;19935;-69
2022/08/24 05:23:37;;;;;;;30.30;11.73;;;;;;;-144.48;100.00;62369.91;4991023;28;20114;-69
2022/08/24 05:26:09;;;;;;;23.88;11.38;;;;;;;-144.48;100.00;62369.91;4990456;28;20464;-71
2022/08/24 05:28:34;;;;;;;31.88;13.63;;;;;;;-144.48;100.00;62369.91;4993311;28;20032;-69
2022/08/24 05:31:15;;;;;;;28.13;12.57;;;;;;;-144.48;100.00;62369.91;4978078;28;20014;-68
2022/08/24 05:33:41;;;;;;;43.42;12.70;;;;;;;-144.48;100.00;62369.91;4992399;28;20022;-66
2022/08/24 05:36:15;;;;;;;22.13;11.63;;;;;;;-144.48;100.00;62369.91;4999474;28;20033;-68
2022/08/24 05:38:41;;;;;;;19.33;11.32;;;;;;;-144.48;100.00;62369.91;4990137;28;20022;-69
2022/08/24 05:41:06;;;;;;;29.70;11.40;;;;;;;-144.48;100.00;62369.91;4990707;28;20045;-68
2022/08/24 05:43:32;;;;;;;19.98;11.60;;;;;;;-144.48;100.00;62369.91;4990490;28;20041;-66
2022/08/24 05:45:57;;;;;;;27.05;11.30;;;;;;;-144.48;100.00;62369.91;4989606;28;20618;-69
2022/08/24 05:48:22;;;;;;;42.15;13.05;;;;;;;-144.48;100.00;62369.91;4990738;28;20024;-68
2022/08/24 05:50:55;;;;;;;33.20;13.18;;;;;;;-144.48;100.00;62369.91;4984959;28;20018;-68
2022/08/24 05:53:21;;;;;;;24.63;10.27;;;;;;;-144.48;100.00;62369.91;4992586;28;20121;-68
2022/08/24 05:55:47;;;;;;;34.95;11.57;;;;;;;-144.48;100.00;62369.91;4989927;28;20042;-70
2022/08/24 05:58:13;;;;;;;27.65;13.65;;;;;;;-144.48;100.00;62369.91;4989534;28;20154;-66
2022/08/24 06:00:38;;;;;;;24.73;12.60;;;;;;;-144.48;100.00;62369.91;5000238;28;20140;-68
2022/08/24 06:03:03;;;;;;;24.38;11.65;;;;;;;-144.48;100.00;62369.91;4991292;28;20065;-69
2022/08/24 06:05:29;;;;;;;25.05;11.38;;;;;;;-144.48;100.00;62369.91;4990080;28;20049;-68
2022/08/24 06:07:54;;;;;;;27.75;11.63;;;;;;;-144.48;100.00;62369.91;4990421;28;20440;-69
2022/08/24 06:10:23;;;;;;;27.10;12.43;;;;;;;-144.48;100.00;62369.91;4988861;28;20025;-71
2022/08/24 06:12:48;;;;;;;22.27;10.77;;;;;;;-144.48;100.00;62369.91;4990424;28;20073;-69
2022/08/24 06:15:14;;;;;;;16.00;10.18;;;;;;;-144.48;100.00;62369.91;4990455;28;20022;-68
2022/08/24 06:17:39;;;;;;;29.00;11.38;;;;;;;-144.48;100.00;62369.91;4990112;28;20030;-68
2022/08/24 06:20:06;;;;;;;24.42;10.30;;;;;;;-144.48;100.00;62369.91;4990318;28;20400;-70
2022/08/24 06:22:31;;;;;;;24.05;11.57;;;;;;;-144.48;100.00;62369.91;4990171;28;20045;-65
2022/08/24 06:27:41;;;;;;;16.48;10.13;;;;;;;-144.48;100.00;62369.91;4989210;28;20028;-70
2022/08/24 06:30:08;;;;;;;16.92;11.40;;;;;;;-144.48;100.00;62369.91;4990017;28;20018;-68
2022/08/24 06:32:34;;;;;;;23.03;11.23;;;;;;;-144.48;100.00;62369.91;4990758;28;20022;-68
2022/08/24 06:35:00;;;;;;;16.45;10.27;;;;;;;-144.48;100.00;62369.91;4989112;28;20022;-69
2022/08/24 06:37:26;;;;;;;21.13;11.57;;;;;;;-144.48;100.00;62369.91;4989996;28;20392;-68
2022/08/24 06:39:53;;;;;;;15.13;9.63;;;;;;;-144.48;100.00;62369.91;4991289;28;20468;-72
2022/08/24 06:42:18;;;;;;;20.67;11.45;;;;;;;-144.48;100.00;62369.91;4988757;28;20539;-68
2022/08/24 06:44:43;;;;;;;25.40;10.98;;;;;;;-144.48;100.00;62369.91;4989016;28;20156;-69
2022/08/24 06:47:10;;;;;;;18.13;10.32;;;;;;;-144.48;100.00;62369.91;4989962;28;20026;-68
2022/08/24 06:49:36;;;;;;;25.00;10.88;;;;;;;-144.48;100.00;62369.91;4990925;28;20510;-67
2022/08/24 06:52:03;;;;;;;24.15;11.30;;;;;;;-144.48;100.00;62369.91;4990405;28;20125;-72
2022/08/24 06:54:28;;;;;;;30.00;11.30;;;;;;;-144.48;100.00;62369.91;4987670;28;20014;-69
2022/08/24 06:56:55;;;;;;;25.13;11.60;;;;;;;-144.48;100.00;62369.91;4980583;28;20097;-70
2022/08/24 06:59:20;;;;;;;22.38;10.57;;;;;;;-144.48;100.00;62369.91;4990211;28;20018;-70
2022/08/24 07:01:46;;;;;;;16.70;10.10;;;;;;;-144.48;100.00;62369.91;4990077;28;20022;-72
2022/08/24 07:04:11;;;;;;;18.83;10.63;;;;;;;-144.48;100.00;62369.91;4988601;28;20607;-68
2022/08/24 07:06:37;;;;;;;24.60;10.90;;;;;;;-144.48;100.00;62369.91;4988788;28;20036;-70
2022/08/24 07:09:02;;;;;;;23.27;10.82;;;;;;;-144.48;100.00;62369.91;4990041;28;20065;-70
2022/08/24 07:11:28;;;;;;;19.52;10.98;;;;;;;-144.48;100.00;62369.91;4990698;28;20092;-70
2022/08/24 07:13:53;;;;;;;17.17;9.43;;;;;;;-144.48;100.00;62369.91;4991685;28;20034;-69
2022/08/24 07:16:21;;;;;;;25.75;10.23;;;;;;;-144.48;100.00;62369.91;4994163;28;20045;-68
2022/08/24 07:18:46;;;;;;;19.95;10.60;;;;;;;-144.48;100.00;62369.91;4993509;28;20026;-68
2022/08/24 07:21:12;;;;;;;35.70;12.15;;;;;;;-144.48;100.00;62369.91;4993447;28;20073;-69
2022/08/24 07:23:37;;;;;;;20.33;10.38;;;;;;;-144.48;100.00;62369.91;4991450;28;20037;-70
2022/08/24 07:26:10;;;;;;;26.40;11.18;;;;;;;-144.48;100.00;62369.91;4993357;28;20417;-66
2022/08/24 07:28:37;;;;;;;19.77;9.98;;;;;;;-144.48;100.00;62369.91;4993293;28;20018;-68
2022/08/24 07:31:03;;;;;;;17.85;10.82;;;;;;;-144.48;100.00;62369.91;4992862;28;20030;-65
2022/08/24 07:33:29;;;;;;;18.42;9.07;;;;;;;-144.48;100.00;62369.91;4992999;28;20121;-69
2022/08/24 07:35:55;;;;;;;24.08;10.05;;;;;;;-144.48;100.00;62369.91;4994791;28;20076;-69
2022/08/24 07:38:20;;;;;;;20.33;11.90;;;;;;;-144.48;100.00;62369.91;4992573;28;20037;-70
2022/08/24 07:40:46;;;;;;;21.25;10.93;;;;;;;-144.48;100.00;62369.91;4991487;28;20033;-69
2022/08/24 07:43:12;;;;;;;24.60;10.65;;;;;;;-144.48;100.00;62369.91;4992638;28;20022;-72
2022/08/24 07:45:40;;;;;;;29.88;11.35;;;;;;;-144.48;100.00;62369.91;4992821;28;20023;-68
2022/08/24 07:48:06;;;;;;;19.80;9.55;;;;;;;-144.48;100.00;62369.91;4992430;28;20026;-68
2022/08/24 07:50:32;;;;;;;20.23;9.88;;;;;;;-144.48;100.00;62369.91;4991317;28;20025;-69
2022/08/24 07:52:57;;;;;;;18.55;9.57;;;;;;;-144.48;100.00;62369.91;4992497;28;20566;-69
2022/08/24 07:55:22;;;;;;;13.63;8.13;;;;;;;-144.48;100.00;62369.91;4988816;28;20463;-72
2022/08/24 07:57:48;;;;;;;17.60;8.57;;;;;;;-144.48;100.00;62369.91;4991751;28;20372;-69
2022/08/24 08:00:15;;;;;;;16.45;8.00;;;;;;;-144.48;100.00;62369.91;4980987;28;20014;-67
2022/08/24 08:02:45;;;;;;;25.50;9.65;;;;;;;-144.48;100.00;62369.91;4989656;28;20579;-71
2022/08/24 08:05:12;;;;;;;32.17;7.50;;;;;;;-144.48;100.00;62369.91;4991890;28;20380;-68
2022/08/24 08:07:37;;;;;;;19.20;9.35;;;;;;;-144.48;100.00;62369.91;4992673;28;20084;-67
2022/08/24 08:10:03;;;;;;;17.08;8.15;;;;;;;-144.48;100.00;62369.91;4992390;28;20023;-68
2022/08/24 08:12:29;;;;;;;13.88;7.63;;;;;;;-144.48;100.00;62369.91;4992243;28;20551;-69
2022/08/24 08:14:56;;;;;;;20.92;7.32;;;;;;;-144.48;100.00;62369.91;4991318;28;20526;-68
2022/08/24 08:17:21;;;;;;;14.43;7.38;;;;;;;-144.48;100.00;62369.91;4992698;28;20022;-71
2022/08/24 08:19:46;;;;;;;17.02;6.75;;;;;;;-144.48;100.00;62369.91;4992083;28;20018;-71
2022/08/24 08:24:55;;;;;;;17.13;6.18;;;;;;;-144.48;100.00;62369.91;4991542;28;20033;-66
2022/08/24 08:27:21;;;;;;;22.55;6.20;;;;;;;-144.48;100.00;62369.91;4992031;28;20034;-69
2022/08/24 08:29:47;;;;;;;22.38;7.20;;;;;;;-144.48;100.00;62369.91;4992340;28;20022;-68
2022/08/24 08:32:15;;;;;;;14.30;5.53;;;;;;;-144.48;100.00;62369.91;4961774;28;20158;-69
2022/08/24 08:34:41;;;;;;;21.48;6.85;;;;;;;-144.48;100.00;62369.91;4991533;28;20113;-69
2022/08/24 08:37:07;;;;;;;14.07;5.85;;;;;;;-144.48;100.00;62369.91;4991612;28;20034;-69
2022/08/24 08:39:33;;;;;;;18.50;6.10;;;;;;;-144.48;100.00;62369.91;4992008;28;20445;-71
2022/08/24 08:42:35;;;;;;;12.15;5.25;;;;;;;-144.48;100.00;62369.91;4991457;28;20050;-70
2022/08/24 08:45:22;;;;;;;13.10;5.60;;;;;;;-144.48;100.00;62369.91;4991628;28;20434;-70
2022/08/24 08:48:03;;;;;;;18.55;5.05;;;;;;;-144.48;100.00;62369.91;4990093;28;20041;-68
2022/08/24 08:50:39;;;;;;;19.02;5.55;;;;;;;-144.48;100.00;62369.91;4991264;28;20088;-68
2022/08/24 08:53:34;;;;;;;10.88;5.78;;;;;;;-144.48;100.00;62369.91;4991880;28;20045;-69
2022/08/24 08:56:13;;;;;;;10.27;5.25;;;;;;;-144.48;100.00;62369.91;4978470;28;20022;-69
2022/08/24 08:59:02;;;;;;;;;;;;;;;-144.48;100.00;62369.91;4992123;28;20022;-70
2022/08/24 09:01:57;;;;;;;15.20;5.57;;;;;;;-144.48;100.00;62369.91;4978651;28;20430;-73
2022/08/24 09:04:41;;;;;;;11.15;5.50;;;;;;;-144.48;100.00;62369.91;4990026;28;20065;-71
2022/08/24 09:07:37;;;;;;;17.20;5.57;;;;;;;-144.48;100.00;62369.91;4989946;28;20360;-71
2022/08/24 09:10:18;;;;;;;16.50;5.50;;;;;;;-144.48;100.00;62369.91;4970219;28;20090;-67
2022/08/24 09:13:02;;;;;;;14.50;4.63;;;;;;;-144.48;100.00;62369.91;4978740;28;20022;-68
2022/08/24 09:16:06;;;;;;;10.55;4.38;;;;;;;-144.48;100.00;62369.91;4989293;28;20133;-66
2022/08/24 09:18:50;;;;;;;8.48;3.55;;;;;;;-144.48;100.00;62369.91;4990904;28;20014;-68
2022/08/24 09:21:30;;;;;;;9.35;3.80;;;;;;;-144.48;100.00;62369.91;4990851;28;20026;-66
2022/08/24 09:24:20;;;;;;;13.20;4.57;;;;;;;-144.48;100.00;62369.91;4990881;28;20101;-67
2022/08/24 09:27:03;;;;;;;14.88;4.35;;;;;;;-144.48;100.00;62369.91;4990989;28;20026;-67
2022/08/24 09:30:17;;;;;;;11.15;4.93;;;;;;;-144.48;100.00;62369.91;4990781;28;20375;-70
2022/08/24 09:33:25;;;;;;;18.67;4.50;;;;;;;-144.48;100.00;62369.91;4935448;28;20548;-66
2022/08/24 09:35:51;;;;;;;15.20;4.03;;;;;;;-144.48;100.00;62369.91;4963913;28;20042;-68
2022/08/24 09:38:59;;;;;;;13.73;3.85;;;;;;;-144.48;100.00;62369.91;4989508;28;20018;-68
2022/08/24 09:41:52;;;;;;;9.20;3.83;;;;;;;-144.48;100.00;62369.91;4971706;28;20042;-68
2022/08/24 09:44:20;;;;;;;11.15;4.50;;;;;;;-144.48;100.00;62369.91;4991220;28;20376;-68
2022/08/24 09:47:16;;;;;;;9.07;3.70;;;;;;;-144.48;100.00;62369.91;4990240;28;20026;-69
2022/08/24 09:50:06;;;;;;;11.73;3.85;;;;;;;-144.48;100.00;62369.91;4990278;28;20026;-71
2022/08/24 09:52:50;;;;;;;13.80;4.15;;;;;;;-144.48;100.00;62369.91;4989407;28;20030;-71
2022/08/24 09:55:52;;;;;;;14.60;4.95;;;;;;;-144.48;100.00;62369.91;4976585;28;20026;-70
2022/08/24 09:58:31;;;;;;;19.33;4.40;;;;;;;-144.48;100.00;62369.91;4979653;28;20403;-69
2022/08/24 10:01:18;;;;;;;17.08;3.75;;;;;;;-144.48;100.00;62369.91;4989073;28;20563;-70
2022/08/24 10:04:06;;;;;;;19.50;3.90;;;;;;;-144.48;100.00;62369.91;4990645;28;20112;-70
2022/08/24 10:06:52;;;;;;;11.63;4.03;;;;;;;-144.48;100.00;62369.91;4978781;28;20018;-70
2022/08/24 10:09:50;;;;;;;13.68;3.30;;;;;;;-144.48;100.00;62369.91;4989079;28;20030;-67
2022/08/24 10:12:15;;;;;;;11.00;3.85;;;;;;;-144.48;100.00;62369.91;4985809;28;20514;-68
2022/08/24 10:14:59;;;;;;;12.13;4.57;;;;;;;-144.48;100.00;62369.91;4989182;28;20021;-70
2022/08/24 10:17:31;;;;;;;11.77;3.55;;;;;;;-144.48;100.00;62369.91;4987410;28;20109;-70
2022/08/24 10:20:15;;;;;;;9.32;3.40;;;;;;;-144.48;100.00;62369.91;4988978;28;20022;-68
2022/08/24 10:23:08;;;;;;;8.18;3.42;;;;;;;-144.48;100.00;62369.91;4981377;28;20022;-67
2022/08/24 10:25:39;;;;;;;10.50;3.97;;;;;;;-144.48;100.00;62369.91;4988991;28;20037;-65
2022/08/24 10:28:23;;;;;;;12.63;4.00;;;;;;;-144.48;100.00;62369.91;4989024;28;20034;-67
2022/08/24 10:31:03;;;;;;;16.15;4.95;;;;;;;-144.48;100.00;62369.91;4989216;28;20014;-66
2022/08/24 10:33:34;;;;;;;13.13;3.80;;;;;;;-144.48;100.00;62369.91;4989291;28;20037;-67
2022/08/24 10:36:25;;;;;;;17.45;4.32;;;;;;;-144.48;100.00;62369.91;4989250;28;20053;-69
2022/08/24 10:45:59;;;;;;;10.27;3.83;;;;;;;-144.48;100.00;62369.91;4977738;28;20053;-68
2022/08/24 10:48:31;;;;;;;8.82;3.88;;;;;;;-144.48;100.00;62369.91;4990741;28;20077;-67
2022/08/24 10:51:29;;;;;;;11.32;3.80;;;;;;;-144.48;100.00;62369.91;4992931;28;20106;-67
2022/08/24 10:53:55;;;;;;;9.13;3.25;;;;;;;-144.48;100.00;62369.91;4993275;28;20133;-68
2022/08/24 10:56:46;;;;;;;13.18;3.70;;;;;;;-144.48;100.00;62369.91;4980102;28;20038;-66
2022/08/24 10:59:11;;;;;;;11.35;3.40;;;;;;;-144.48;100.00;62369.91;4991508;28;20023;-66
2022/08/24 11:01:38;;;;;;;13.65;3.95;;;;;;;-144.48;100.00;62369.91;4992735;28;20018;-68
2022/08/24 11:04:06;;;;;;;11.20;3.95;;;;;;;-144.48;100.00;62369.91;4993471;28;20436;-68
2022/08/24 11:06:34;;;;;;;12.57;2.95;;;;;;;-144.48;100.00;62369.91;4992892;28;20465;-68
2022/08/24 11:09:04;;;;;;;12.43;3.35;;;;;;;-144.48;100.00;62369.91;4993315;28;20391;-66
2022/08/24 11:11:42;;;;;;;6.80;2.75;;;;;;;-144.48;100.00;62369.91;4993150;28;20467;-66
2022/08/24 11:14:11;;;;;;;13.77;3.08;;;;;;;-144.48;100.00;62369.91;4991402;28;20026;-67
2022/08/24 11:16:43;;;;;;;11.73;3.63;;;;;;;-144.48;100.00;62369.91;4992268;28;20019;-66
2022/08/24 11:19:12;;;;;;;13.43;3.88;;;;;;;-144.48;100.00;62369.91;4992378;28;20065;-67
2022/08/24 11:21:40;;;;;;;11.68;3.67;;;;;;;-144.48;100.00;62369.91;4992213;28;20507;-66
2022/08/24 11:24:12;;;;;;;6.85;3.08;;;;;;;-144.48;100.00;62369.91;4984986;28;20527;-67
2022/08/24 11:26:52;;;;;;;10.02;3.15;;;;;;;-144.48;100.00;62369.91;4991925;28;20050;-68
2022/08/24 11:29:18;;;;;;;15.20;3.38;;;;;;;-144.48;100.00;62369.91;4992738;28;20624;-69
2022/08/24 11:31:49;;;;;;;8.30;3.20;;;;;;;-144.48;100.00;62369.91;4991059;28;20692;-67
2022/08/24 11:34:18;;;;;;;7.05;2.85;;;;;;;-144.48;100.00;62369.91;4992634;28;20128;-67